Time;durP1;ratioP1;P1;durP2;ratioP2;P2;SDS_P1;SDS_P2;PMS_P1;PMS_P2;Temp;Humidity;BMP_temperature;BMP_pressure;BME280_temperature;BME280_humidity;BME280_pressure;Samples;Min_cycle;Max_cycle;Signal;HPM_P1;HPM_P2
2022/06/24 00:01:33;;;;;;;3.80;1.30;;;;;;;30.34;39.46;98763.72;1835020;77;35280;-42
2022/06/24 00:04:26;;;;;;;1.57;1.10;;;;;;;30.39;39.42;98763.05;1842544;76;28286;-43
2022/06/24 00:07:17;;;;;;;2.60;1.10;;;;;;;30.42;39.43;98763.83;1810807;77;28206;-44
2022/06/24 00:10:14;;;;;;;1.87;1.10;;;;;;;30.41;39.44;98764.14;1806002;77;28290;-44
2022/06/24 00:13:05;;;;;;;2.57;1.20;;;;;;;30.44;39.49;98764.91;1785020;78;28397;-44
2022/06/24 00:15:53;;;;;;;1.50;1.10;;;;;;;30.45;39.48;98763.79;1783849;79;28471;-45
2022/06/24 00:18:42;;;;;;;1.13;1.03;;;;;;;30.45;39.58;98763.79;1760622;80;28460;-43
2022/06/24 00:21:30;;;;;;;1.90;1.17;;;;;;;30.45;39.71;98759.63;1835778;76;28311;-43
2022/06/24 00:24:23;;;;;;;3.15;1.22;;;;;;;30.49;39.52;98760.66;1829363;76;28364;-45
2022/06/24 00:27:24;;;;;;;1.50;1.20;;;;;;;30.48;39.56;98757.06;1771552;79;28364;-42
2022/06/24 00:30:15;;;;;;;2.80;1.23;;;;;;;30.48;39.68;98754.88;1806778;78;28228;-41
2022/06/24 00:33:12;;;;;;;1.62;1.10;;;;;;;30.52;39.60;98758.67;1813285;77;28395;-42
2022/06/24 00:36:01;;;;;;;3.50;1.40;;;;;;;30.54;39.42;98760.58;1798765;77;28198;-42
2022/06/24 00:38:53;;;;;;;1.50;1.17;;;;;;;30.53;39.26;98751.98;1809580;77;28230;-43
2022/06/24 00:41:42;;;;;;;3.55;1.20;;;;;;;30.51;39.37;98757.84;1794467;78;28359;-41
2022/06/24 00:44:33;;;;;;;1.52;1.25;;;;;;;30.54;39.37;98770.28;1817279;77;28389;-43
2022/06/24 00:47:23;;;;;;;3.00;1.30;;;;;;;30.56;39.35;98767.46;1819110;77;28193;-43
2022/06/24 00:50:24;;;;;;;1.30;1.20;;;;;;;30.55;39.31;98753.33;1783048;78;28277;-42
2022/06/24 00:53:13;;;;;;;2.00;1.20;;;;;;;30.52;39.35;98760.89;1804830;78;31254;-44
2022/06/24 00:56:02;;;;;;;1.40;1.20;;;;;;;30.53;39.42;98768.62;1790727;78;28379;-43
2022/06/24 00:58:58;;;;;;;2.40;1.20;;;;;;;30.57;39.31;98755.81;1798581;78;28451;-44
2022/06/24 01:01:50;;;;;;;3.40;1.45;;;;;;;30.57;39.29;98755.81;1827910;76;28188;-44
2022/06/24 01:04:38;;;;;;;2.00;1.32;;;;;;;30.50;39.40;98746.48;1824160;77;28358;-43
2022/06/24 01:07:27;;;;;;;4.00;1.10;;;;;;;30.54;39.40;98741.17;1814037;77;28256;-45
2022/06/24 01:10:14;;;;;;;1.22;1.12;;;;;;;30.55;39.40;98740.05;1787781;79;28345;-41
2022/06/24 01:13:12;;;;;;;1.80;1.30;;;;;;;30.58;39.34;98727.78;1784271;79;28349;-43
2022/06/24 01:16:00;;;;;;;3.10;1.20;;;;;;;30.59;39.30;98729.99;1792524;77;35303;-43
2022/06/24 01:18:58;;;;;;;1.45;1.20;;;;;;;30.59;39.27;98729.44;1817568;77;28306;-44
2022/06/24 01:21:49;;;;;;;3.40;1.20;;;;;;;30.58;39.25;98731.94;1815439;77;28581;-43
2022/06/24 01:24:37;;;;;;;2.67;1.05;;;;;;;30.58;39.26;98739.42;1791183;77;29441;-44
2022/06/24 01:27:25;;;;;;;2.40;1.13;;;;;;;30.57;39.28;98734.44;1820878;76;28390;-44
2022/06/24 01:30:14;;;;;;;2.12;1.15;;;;;;;30.58;39.30;98738.03;1832130;76;28279;-43
2022/06/24 01:33:02;;;;;;;1.70;1.30;;;;;;;30.61;39.31;98727.73;1820998;78;28270;-45
2022/06/24 01:35:50;;;;;;;1.37;1.05;;;;;;;30.60;39.29;98732.45;1827087;77;28316;-47
2022/06/24 01:38:40;;;;;;;1.20;1.10;;;;;;;30.60;39.28;98722.75;1839566;76;28221;-45
2022/06/24 01:41:29;;;;;;;1.80;1.20;;;;;;;30.60;39.27;98712.22;1792195;78;28422;-45
2022/06/24 01:44:17;;;;;;;1.22;1.05;;;;;;;30.60;39.28;98706.11;1760460;78;28410;-44
2022/06/24 01:47:06;;;;;;;1.52;1.05;;;;;;;30.61;39.28;98703.61;1821893;76;28274;-48
2022/06/24 01:49:54;;;;;;;1.80;1.20;;;;;;;30.61;39.27;98701.39;1814036;77;28393;-45
2022/06/24 01:52:43;;;;;;;3.37;1.20;;;;;;;30.58;39.28;98690.91;1813672;77;28358;-44
2022/06/24 01:55:32;;;;;;;1.70;1.10;;;;;;;30.59;39.30;98689.80;1815303;77;28338;-45
2022/06/24 01:58:20;;;;;;;2.12;1.07;;;;;;;30.63;39.29;98692.20;1828369;76;28167;-42
2022/06/24 02:01:09;;;;;;;1.30;1.20;;;;;;;30.60;39.29;98689.48;1835544;77;28467;-44
2022/06/24 02:03:58;;;;;;;2.93;1.50;;;;;;;30.61;39.22;98681.44;1811999;76;28265;-43
2022/06/24 02:06:46;;;;;;;1.77;1.10;;;;;;;30.61;39.23;98666.19;1790767;78;28430;-45
2022/06/24 02:13:26;;;;;;;1.37;1.05;;;;;;;30.60;39.28;98663.70;1824857;77;28283;-46
2022/06/24 02:15:31;;;;;;;2.37;1.20;;;;;;;30.62;39.24;98667.81;1833820;77;28261;-42
2022/06/24 02:18:19;;;;;;;1.87;1.50;;;;;;;30.55;39.27;98677.69;1752243;79;28462;-44
2022/06/24 02:21:07;;;;;;;1.30;1.20;;;;;;;30.54;39.29;98681.02;1828197;77;28439;-43
2022/06/24 02:23:56;;;;;;;1.35;1.17;;;;;;;30.54;39.30;98684.34;1801811;78;28288;-43
2022/06/24 02:26:45;;;;;;;2.47;1.30;;;;;;;30.52;39.29;98681.89;1834389;76;28311;-44
2022/06/24 02:29:33;;;;;;;1.32;1.12;;;;;;;30.55;39.36;98681.84;1814516;77;28392;-43
2022/06/24 02:32:22;;;;;;;3.97;1.53;;;;;;;30.50;39.36;98676.39;1818543;76;28366;-42
2022/06/24 02:35:10;;;;;;;1.32;1.15;;;;;;;30.51;39.41;98676.63;1837248;76;28506;-43
2022/06/24 02:37:59;;;;;;;1.70;1.10;;;;;;;30.50;39.41;98686.09;1833401;77;28209;-42
2022/06/24 02:40:48;;;;;;;3.65;1.20;;;;;;;30.49;39.53;98662.27;1830073;76;28760;-42
2022/06/24 02:43:44;;;;;;;1.70;1.10;;;;;;;30.52;39.42;98653.34;1829278;77;28341;-46
2022/06/24 02:46:28;;;;;;;2.95;1.15;;;;;;;30.50;39.47;98656.98;1836999;77;28259;-43
2022/06/24 02:49:17;;;;;;;1.42;1.20;;;;;;;30.50;39.51;98651.45;1796544;77;28220;-43
2022/06/24 02:52:08;;;;;;;2.55;1.20;;;;;;;30.49;39.60;98657.55;1826298;77;28254;-43
2022/06/24 02:54:57;;;;;;;1.30;1.20;;;;;;;30.53;39.52;98660.52;1832584;76;28331;-45
2022/06/24 02:57:45;;;;;;;2.10;1.20;;;;;;;30.50;39.53;98659.77;1832327;77;28344;-46
2022/06/24 03:00:34;;;;;;;2.85;1.30;;;;;;;30.51;39.52;98655.84;1823532;77;28243;-44
2022/06/24 03:03:24;;;;;;;2.50;1.10;;;;;;;30.52;39.52;98651.40;1828554;77;30173;-43
2022/06/24 03:06:12;;;;;;;2.80;1.30;;;;;;;30.50;39.51;98645.91;1835873;77;28238;-44
2022/06/24 03:09:01;;;;;;;1.62;1.37;;;;;;;30.47;39.59;98645.13;1796698;77;28270;-44
2022/06/24 03:11:49;;;;;;;1.87;1.40;;;;;;;30.50;39.53;98638.38;1768655;79;30406;-43
2022/06/24 03:14:37;;;;;;;2.02;1.07;;;;;;;30.50;39.53;98640.36;1758803;80;28504;-45
2022/06/24 03:17:25;;;;;;;1.40;1.15;;;;;;;30.52;39.53;98643.64;1782333;79;28399;-45
2022/06/24 03:20:14;;;;;;;1.40;1.15;;;;;;;30.50;39.52;98643.92;1752229;80;28382;-45
2022/06/24 03:23:03;;;;;;;1.82;1.10;;;;;;;30.53;39.46;98648.04;1787470;79;28286;-43
2022/06/24 03:25:51;;;;;;;2.30;1.15;;;;;;;30.51;39.51;98660.00;1780251;80;28431;-44
2022/06/24 03:28:39;;;;;;;1.45;1.15;;;;;;;30.53;39.49;98654.97;1801031;78;28376;-43
2022/06/24 03:31:28;;;;;;;4.10;1.10;;;;;;;30.50;39.51;98658.38;1826585;76;28277;-42
2022/06/24 03:34:16;;;;;;;2.27;1.17;;;;;;;30.51;39.55;98647.53;1799077;76;28457;-41
2022/06/24 03:37:05;;;;;;;1.45;1.32;;;;;;;30.50;39.51;98652.24;1831735;77;28307;-45
2022/06/24 03:39:56;;;;;;;1.10;0.90;;;;;;;30.51;39.53;98669.70;1814146;78;28272;-42
2022/06/24 03:42:45;;;;;;;1.40;1.20;;;;;;;30.51;39.53;98676.63;1832257;77;28239;-43
2022/06/24 03:45:34;;;;;;;2.67;1.12;;;;;;;30.50;39.57;98679.96;1828609;76;28185;-44
2022/06/24 03:48:22;;;;;;;3.00;1.20;;;;;;;30.50;39.56;98679.16;1826112;77;28339;-41
2022/06/24 03:51:10;;;;;;;2.80;1.20;;;;;;;30.49;39.63;98685.27;1816306;76;28357;-41
2022/06/24 03:53:58;;;;;;;1.75;1.10;;;;;;;30.52;39.64;98679.67;1793479;79;28285;-44
2022/06/24 03:56:47;;;;;;;1.77;1.00;;;;;;;30.50;39.69;98676.39;1787432;77;28457;-44
2022/06/24 03:59:35;;;;;;;3.00;1.10;;;;;;;30.48;39.71;98673.91;1782600;79;28342;-43
2022/06/24 04:02:23;;;;;;;2.55;1.17;;;;;;;30.50;39.76;98668.08;1829273;77;28346;-43
2022/06/24 04:05:12;;;;;;;2.12;1.05;;;;;;;30.49;39.81;98663.65;1827540;77;28361;-43
2022/06/24 04:08:00;;;;;;;1.12;1.00;;;;;;;30.48;39.82;98662.82;1831237;77;28350;-43
2022/06/24 04:10:49;;;;;;;1.17;1.07;;;;;;;30.47;39.85;98656.20;1796481;78;28376;-45
2022/06/24 04:13:38;;;;;;;1.82;1.00;;;;;;;30.47;39.89;98654.27;1782684;78;28312;-42
2022/06/24 04:16:27;;;;;;;2.27;1.02;;;;;;;30.47;39.92;98646.51;1817205;78;28538;-41
2022/06/24 04:19:15;;;;;;;4.35;1.27;;;;;;;30.46;39.94;98644.85;1785074;78;28572;-41
2022/06/24 04:22:05;;;;;;;2.70;1.15;;;;;;;30.47;39.96;98652.05;1825759;77;28411;-43
2022/06/24 04:24:53;;;;;;;2.40;1.30;;;;;;;30.46;40.04;98651.22;1844693;76;28364;-46
2022/06/24 04:27:42;;;;;;;2.45;1.37;;;;;;;30.44;40.12;98639.63;1848636;76;28260;-41
2022/06/24 04:30:30;;;;;;;2.10;1.22;;;;;;;30.44;40.16;98622.17;1829703;77;28327;-44
2022/06/24 04:33:19;;;;;;;2.00;1.40;;;;;;;30.44;40.21;98612.47;1813212;78;28311;-42
2022/06/24 04:36:15;;;;;;;2.00;1.10;;;;;;;30.43;40.19;98606.69;1818329;78;28189;-43
2022/06/24 04:39:04;;;;;;;2.00;1.10;;;;;;;30.45;40.18;98607.20;1839777;77;28372;-44
2022/06/24 04:41:52;;;;;;;1.27;1.15;;;;;;;30.44;40.19;98616.06;1820189;77;28881;-42
2022/06/24 04:44:41;;;;;;;2.20;1.10;;;;;;;30.45;40.15;98605.81;1827712;77;28273;-45
2022/06/24 04:47:29;;;;;;;1.50;1.12;;;;;;;30.46;40.20;98590.80;1815611;78;28393;-43
2022/06/24 04:50:18;;;;;;;1.57;1.12;;;;;;;30.47;40.23;98588.30;1836557;77;28259;-42
2022/06/24 04:53:08;;;;;;;1.42;1.07;;;;;;;30.44;40.33;98592.51;1786545;78;28432;-43
2022/06/24 04:55:59;;;;;;;3.00;1.23;;;;;;;30.40;40.54;98597.59;1789684;79;28394;-43
2022/06/24 04:58:47;;;;;;;2.60;1.10;;;;;;;30.33;40.82;98598.01;1817902;77;28965;-43
2022/06/24 05:01:36;;;;;;;2.27;1.20;;;;;;;30.28;41.02;98599.45;1826162;77;28322;-45
2022/06/24 05:04:24;;;;;;;3.40;1.22;;;;;;;30.25;41.13;98604.77;1822332;77;28327;-44
2022/06/24 05:07:14;;;;;;;1.30;1.10;;;;;;;30.21;41.22;98608.73;1836032;77;28328;-44
2022/06/24 05:10:04;;;;;;;2.73;1.37;;;;;;;30.18;41.31;98605.18;1822436;77;28243;-47
2022/06/24 05:12:53;;;;;;;3.70;1.60;;;;;;;30.17;41.38;98604.11;1831944;77;28441;-45
2022/06/24 05:15:42;;;;;;;1.87;1.67;;;;;;;30.13;41.52;98604.48;1815852;77;28378;-44
2022/06/24 05:18:31;;;;;;;2.05;1.50;;;;;;;29.93;41.87;98595.97;1822194;77;28316;-44
2022/06/24 05:21:19;;;;;;;3.27;1.70;;;;;;;29.89;42.04;98598.53;1815517;78;28319;-44
2022/06/24 05:24:09;;;;;;;1.22;1.12;;;;;;;29.93;41.95;98596.80;1835393;76;28677;-42
2022/06/24 05:26:58;;;;;;;3.95;1.20;;;;;;;29.94;41.85;98597.03;1829848;77;28204;-44
2022/06/24 05:29:46;;;;;;;6.70;2.00;;;;;;;29.97;41.87;98596.44;1821444;78;28254;-45
2022/06/24 05:32:35;;;;;;;2.00;1.50;;;;;;;29.98;41.87;98587.57;1827496;77;28154;-49
2022/06/24 05:35:23;;;;;;;1.50;1.40;;;;;;;29.96;41.99;98583.73;1818241;77;28254;-44
2022/06/24 05:38:12;;;;;;;2.58;1.70;;;;;;;29.83;42.28;98583.67;1777404;79;28366;-43
2022/06/24 05:41:02;;;;;;;5.53;1.50;;;;;;;29.76;42.47;98581.31;1813381;77;28401;-42
2022/06/24 05:43:51;;;;;;;5.55;1.70;;;;;;;29.67;42.75;98585.87;1822253;77;28322;-46
2022/06/24 05:46:40;;;;;;;2.92;1.40;;;;;;;29.60;43.29;98592.36;1818816;77;28376;-43
2022/06/24 05:49:28;;;;;;;2.33;1.57;;;;;;;29.48;43.91;98594.77;1834911;76;28193;-46
2022/06/24 05:55:02;;;;;;;2.03;1.50;;;;;;;29.32;44.15;98587.84;1826892;77;28332;-45
2022/06/24 05:55:07;;;;;;;2.05;1.50;;;;;;;29.20;44.04;98588.30;1835016;76;28207;-42
2022/06/24 05:57:55;;;;;;;2.35;1.50;;;;;;;29.25;44.05;98597.08;1822343;76;28376;-42
2022/06/24 06:00:44;;;;;;;2.17;1.60;;;;;;;29.36;44.00;98594.41;1822642;76;28345;-44
2022/06/24 06:03:33;;;;;;;3.10;1.57;;;;;;;29.49;43.67;98595.04;1817478;77;28394;-44
2022/06/24 06:06:22;;;;;;;3.27;1.50;;;;;;;29.54;43.52;98590.81;1822029;77;28245;-45
2022/06/24 06:09:10;;;;;;;3.30;1.45;;;;;;;29.60;43.50;98589.59;1806978;78;28480;-43
2022/06/24 06:11:59;;;;;;;2.80;1.50;;;;;;;29.65;43.69;98588.67;1841707;76;28247;-43
2022/06/24 06:14:47;;;;;;;2.15;1.50;;;;;;;29.72;43.83;98574.71;1828028;76;28436;-44
2022/06/24 06:17:35;;;;;;;2.77;1.60;;;;;;;29.79;43.57;98564.09;1824562;77;28342;-42
2022/06/24 06:20:23;;;;;;;2.52;1.45;;;;;;;29.85;43.25;98562.87;1833974;77;28356;-43
2022/06/24 06:23:12;;;;;;;2.17;1.30;;;;;;;29.89;43.13;98561.71;1818660;77;28198;-45
2022/06/24 06:26:02;;;;;;;5.13;1.27;;;;;;;29.94;42.95;98557.47;1813134;76;28662;-43
2022/06/24 06:28:51;;;;;;;1.30;1.20;;;;;;;29.97;42.71;98551.30;1780103;79;28439;-45
2022/06/24 06:31:39;;;;;;;2.67;1.40;;;;;;;29.98;42.64;98546.03;1823701;77;28374;-44
2022/06/24 06:34:28;;;;;;;2.07;1.30;;;;;;;30.02;42.59;98546.49;1823279;76;28435;-47
2022/06/24 06:37:16;;;;;;;1.90;1.25;;;;;;;30.06;42.52;98551.67;1838907;77;28302;-45
2022/06/24 06:40:06;;;;;;;3.45;1.55;;;;;;;30.09;42.50;98548.30;1816871;77;28353;-43
2022/06/24 06:42:55;;;;;;;1.40;1.30;;;;;;;30.13;42.43;98547.10;1843749;76;28264;-47
2022/06/24 06:45:43;;;;;;;2.67;1.40;;;;;;;30.16;42.38;98553.98;1819795;77;28222;-45
2022/06/24 06:48:31;;;;;;;2.07;1.30;;;;;;;30.18;42.35;98555.91;1828650;76;28243;-44
2022/06/24 06:51:19;;;;;;;2.27;1.20;;;;;;;30.21;42.27;98549.73;1830133;76;28385;-45
2022/06/24 06:54:08;;;;;;;1.60;1.50;;;;;;;30.22;42.21;98548.61;1807028;78;28287;-43
2022/06/24 06:56:59;;;;;;;3.20;1.30;;;;;;;30.23;42.22;98533.61;1836520;76;28302;-43
2022/06/24 06:59:49;;;;;;;1.62;1.40;;;;;;;30.25;42.20;98529.97;1834656;76;28422;-45
2022/06/24 07:02:38;;;;;;;2.35;1.32;;;;;;;30.25;42.12;98534.95;1781432;77;28477;-44
2022/06/24 07:05:26;;;;;;;2.37;1.30;;;;;;;30.26;41.99;98537.16;1820228;76;28142;-44
2022/06/24 07:08:16;;;;;;;1.75;1.10;;;;;;;30.27;41.92;98527.14;1830315;76;28193;-43
2022/06/24 07:11:06;;;;;;;1.30;1.12;;;;;;;30.29;41.86;98526.86;1836053;76;28267;-42
2022/06/24 07:14:00;;;;;;;1.20;1.10;;;;;;;30.30;41.79;98527.09;1838011;76;28278;-45
2022/06/24 07:16:44;;;;;;;1.67;1.30;;;;;;;30.31;41.72;98528.75;1805028;76;28273;-46
2022/06/24 07:19:33;;;;;;;2.62;1.30;;;;;;;30.32;41.68;98519.29;1817832;77;28318;-44
2022/06/24 07:22:21;;;;;;;1.23;1.10;;;;;;;30.33;41.68;98511.28;1834676;76;28260;-43
2022/06/24 07:25:10;;;;;;;2.50;1.50;;;;;;;30.33;41.67;98507.13;1800868;78;28406;-45
2022/06/24 07:27:59;;;;;;;2.30;1.33;;;;;;;30.35;41.65;98506.24;1772102;78;28302;-44
2022/06/24 07:30:48;;;;;;;1.85;1.12;;;;;;;30.35;41.61;98500.14;1761850;79;28552;-48
2022/06/24 07:33:37;;;;;;;3.10;1.30;;;;;;;30.35;41.56;98506.24;1790258;79;28412;-44
2022/06/24 07:36:26;;;;;;;1.60;1.23;;;;;;;30.36;41.56;98506.52;1832225;77;28259;-45
2022/06/24 07:39:14;;;;;;;1.00;1.00;;;;;;;30.37;41.47;98492.89;1815575;77;28486;-43
2022/06/24 07:42:05;;;;;;;1.80;1.30;;;;;;;30.37;41.49;98506.75;1831175;76;28468;-44
2022/06/24 07:44:53;;;;;;;2.75;1.30;;;;;;;30.33;41.62;98516.82;1808436;76;28319;-45
2022/06/24 07:47:42;;;;;;;1.27;1.27;;;;;;;30.31;41.68;98521.82;1814600;77;28531;-43
2022/06/24 07:50:30;;;;;;;1.37;1.27;;;;;;;30.32;41.81;98524.27;1820325;77;28241;-45
2022/06/24 07:53:19;;;;;;;1.80;1.10;;;;;;;30.34;41.78;98526.20;1791492;79;28349;-47
2022/06/24 07:59:14;;;;;;;1.20;1.10;;;;;;;30.36;41.98;98523.14;1789857;78;28442;-43
2022/06/24 08:02:07;;;;;;;3.75;1.22;;;;;;;30.34;42.03;98516.50;1789845;78;28401;-41
2022/06/24 08:04:55;;;;;;;1.12;1.10;;;;;;;30.36;42.26;98500.97;1805100;78;28389;-44
2022/06/24 08:07:44;;;;;;;1.55;1.10;;;;;;;30.39;42.11;98494.78;1817496;76;28202;-43
2022/06/24 08:10:33;;;;;;;1.82;1.37;;;;;;;30.44;41.99;98512.14;1821537;77;28308;-42
2022/06/24 08:13:21;;;;;;;1.12;1.02;;;;;;;30.43;41.99;98508.30;1807220;77;28284;-41
2022/06/24 08:16:09;;;;;;;2.10;1.00;;;;;;;30.44;42.07;98511.31;1817761;77;28207;-44
2022/06/24 08:18:58;;;;;;;2.77;1.22;;;;;;;30.46;42.12;98535.38;1824304;77;29039;-45
2022/06/24 08:21:46;;;;;;;1.20;1.10;;;;;;;30.44;42.48;98536.25;1817364;76;28352;-44
2022/06/24 08:24:35;;;;;;;1.12;0.98;;;;;;;30.48;42.12;98545.61;1827171;77;29108;-45
2022/06/24 08:27:23;;;;;;;3.20;1.27;;;;;;;30.54;42.00;98540.20;1825569;76;28416;-43
2022/06/24 08:30:13;;;;;;;1.60;1.13;;;;;;;30.57;41.92;98535.44;1816489;77;28507;-47
2022/06/24 08:33:03;;;;;;;3.50;1.20;;;;;;;30.59;41.76;98551.19;1826021;77;28344;-46
2022/06/24 08:35:52;;;;;;;1.90;1.10;;;;;;;30.59;41.61;98578.91;1822567;76;28274;-46
2022/06/24 08:38:40;;;;;;;1.53;1.10;;;;;;;30.60;41.53;98599.94;1801967;78;28263;-44
2022/06/24 08:41:29;;;;;;;1.17;1.02;;;;;;;30.58;41.55;98630.75;1803743;78;28394;-43
2022/06/24 08:44:17;;;;;;;2.93;1.10;;;;;;;30.55;41.65;98645.80;1778624;79;28501;-47
2022/06/24 08:47:06;;;;;;;1.37;1.10;;;;;;;30.56;41.50;98618.33;1784662;79;28524;-47
2022/06/24 08:49:55;;;;;;;4.58;1.30;;;;;;;30.54;41.32;98636.66;1755107;79;28315;-45
2022/06/24 08:52:49;;;;;;;1.82;1.22;;;;;;;30.54;41.40;98652.47;1765725;79;28495;-47
2022/06/24 08:55:41;;;;;;;1.33;1.20;;;;;;;30.57;41.27;98700.38;1787807;79;28388;-42
2022/06/24 08:58:30;;;;;;;1.30;1.20;;;;;;;30.57;41.23;98705.33;1785588;78;29330;-44
2022/06/24 09:01:18;;;;;;;1.10;1.10;;;;;;;30.58;41.17;98704.22;1783951;79;28456;-44
2022/06/24 09:04:08;;;;;;;1.23;1.03;;;;;;;30.57;41.13;98692.86;1782351;78;28424;-46
2022/06/24 09:06:57;;;;;;;1.17;1.17;;;;;;;30.60;41.12;98688.65;1787925;78;28326;-43
2022/06/24 09:09:51;;;;;;;1.33;1.10;;;;;;;30.58;41.07;98685.37;1788716;79;28355;-44
2022/06/24 09:12:48;;;;;;;1.50;1.10;;;;;;;30.54;41.09;98672.70;1766919;79;28445;-43
2022/06/24 09:15:37;;;;;;;1.05;0.90;;;;;;;30.51;41.41;98635.88;1821569;77;28466;-43
2022/06/24 09:18:26;;;;;;;1.20;1.10;;;;;;;30.49;41.33;98652.00;1822686;77;28351;-46
2022/06/24 09:21:23;;;;;;;1.30;1.00;;;;;;;30.53;41.17;98635.56;1772356;79;28358;-43
2022/06/24 09:24:11;;;;;;;1.25;1.00;;;;;;;30.45;41.20;98648.77;1775433;78;28484;-45
2022/06/24 09:27:02;;;;;;;1.25;1.10;;;;;;;30.48;41.25;98734.09;1784592;78;28420;-44
2022/06/24 09:29:51;;;;;;;0.90;0.90;;;;;;;30.53;41.23;98749.21;1782557;79;28276;-43
2022/06/24 09:32:53;;;;;;;1.57;1.07;;;;;;;30.55;41.09;98759.46;1792676;79;28434;-45
2022/06/24 09:35:43;;;;;;;1.05;1.05;;;;;;;30.57;41.08;98789.08;1781817;79;28339;-42
2022/06/24 09:38:32;;;;;;;0.93;0.93;;;;;;;30.57;41.08;98796.02;1787204;79;28457;-43
2022/06/24 09:41:21;;;;;;;1.00;0.90;;;;;;;30.57;41.01;98771.06;1785167;79;28319;-45
2022/06/24 09:44:10;;;;;;;1.17;1.03;;;;;;;30.59;41.02;98777.12;1773621;79;28478;-46
2022/06/24 09:47:06;;;;;;;1.20;1.10;;;;;;;30.60;41.05;98803.70;1804224;78;28388;-44
2022/06/24 09:49:58;;;;;;;1.47;1.05;;;;;;;30.59;41.05;98824.25;1813053;77;28395;-44
2022/06/24 09:52:47;;;;;;;1.00;1.00;;;;;;;30.52;41.21;98826.59;1810254;77;28226;-44
2022/06/24 09:55:37;;;;;;;1.35;0.95;;;;;;;30.58;41.23;98857.24;1819793;76;28645;-43
2022/06/24 09:58:27;;;;;;;1.30;1.00;;;;;;;30.54;41.24;98862.59;1793962;77;28361;-43
2022/06/24 10:01:18;;;;;;;1.87;0.98;;;;;;;30.57;41.25;98869.47;1807655;76;28231;-46
2022/06/24 10:04:14;;;;;;;1.23;1.00;;;;;;;30.60;41.17;98877.17;1805981;77;28458;-43
2022/06/24 10:07:04;;;;;;;1.57;0.90;;;;;;;30.60;41.14;98875.22;1803249;77;28462;-44
2022/06/24 10:09:55;;;;;;;1.00;0.90;;;;;;;30.59;41.15;98869.99;1818384;77;28175;-43
2022/06/24 10:12:46;;;;;;;0.75;0.75;;;;;;;30.61;41.06;98870.52;1824964;77;28836;-44
2022/06/24 10:15:37;;;;;;;0.90;0.90;;;;;;;30.61;41.03;98868.56;1823034;77;28293;-42
2022/06/24 10:18:29;;;;;;;1.35;0.90;;;;;;;30.60;41.04;98853.05;1821501;76;28235;-44
2022/06/24 10:21:19;;;;;;;0.80;0.80;;;;;;;30.63;40.98;98853.00;1821814;76;28251;-44
2022/06/24 10:24:16;;;;;;;1.57;1.00;;;;;;;30.62;40.93;98856.92;1826797;77;28293;-42
2022/06/24 10:27:05;;;;;;;2.15;0.80;;;;;;;30.62;40.87;98869.40;1811265;76;28425;-43
2022/06/24 10:29:53;;;;;;;2.00;0.97;;;;;;;30.62;40.88;98877.72;1810963;77;28256;-43
2022/06/24 10:32:44;;;;;;;0.78;0.78;;;;;;;30.61;40.85;98881.59;1807951;77;28314;-42
2022/06/24 10:36:02;;;;;;;0.70;0.70;;;;;;;30.61;40.80;98885.76;1820220;76;28278;-49
2022/06/24 10:38:52;;;;;;;0.85;0.85;;;;;;;30.58;40.80;98883.02;1817666;76;28197;-46
2022/06/24 10:41:41;;;;;;;0.70;0.70;;;;;;;30.56;40.77;98882.51;1817703;77;28261;-45
2022/06/24 10:44:33;;;;;;;0.75;0.75;;;;;;;30.57;40.79;98886.11;1819988;77;28361;-47
2022/06/24 10:47:30;;;;;;;1.45;0.80;;;;;;;30.58;40.76;98884.97;1805064;77;28363;-44
2022/06/24 10:50:20;;;;;;;1.05;0.90;;;;;;;30.58;40.70;98884.97;1813327;77;28448;-41
2022/06/24 10:53:09;;;;;;;0.80;0.80;;;;;;;30.57;40.70;98892.45;1823798;77;28156;-45
2022/06/24 10:55:58;;;;;;;1.10;0.80;;;;;;;30.60;40.64;98904.89;1796278;77;28362;-42
2022/06/24 10:58:46;;;;;;;0.72;0.72;;;;;;;30.62;40.58;98912.38;1812567;76;28245;-44
2022/06/24 11:01:35;;;;;;;0.80;0.70;;;;;;;30.62;40.53;98922.08;1815023;76;28387;-43
2022/06/24 11:04:26;;;;;;;1.50;0.70;;;;;;;30.62;40.48;98931.78;1818935;77;28143;-43
2022/06/24 11:07:21;;;;;;;1.07;0.68;;;;;;;30.61;40.47;98935.11;1824197;76;28336;-46
2022/06/24 11:10:17;;;;;;;0.60;0.60;;;;;;;30.59;40.49;98934.59;1819053;77;28285;-43
2022/06/24 11:13:05;;;;;;;0.70;0.70;;;;;;;30.62;40.44;98948.41;1759022;78;28918;-46
2022/06/24 11:15:56;;;;;;;0.60;0.60;;;;;;;30.60;40.45;98957.02;1821984;77;28178;-46
2022/06/24 11:18:46;;;;;;;0.82;0.70;;;;;;;30.61;40.44;98954.52;1807779;77;28366;-46
2022/06/24 11:21:38;;;;;;;1.10;0.65;;;;;;;30.61;40.35;98963.39;1812452;76;28412;-44
2022/06/24 11:24:28;;;;;;;0.68;0.68;;;;;;;30.59;40.39;98960.92;1818320;76;28155;-45
2022/06/24 11:27:17;;;;;;;0.87;0.87;;;;;;;30.61;40.36;98966.16;1787029;79;28352;-43
2022/06/24 11:30:07;;;;;;;0.70;0.70;;;;;;;30.60;40.35;98963.11;1749004;81;28395;-44
2022/06/24 11:32:59;;;;;;;0.57;0.57;;;;;;;30.62;40.32;98983.87;1783330;79;28362;-43
2022/06/24 11:35:50;;;;;;;0.85;0.78;;;;;;;30.62;40.26;98970.00;1749780;80;28492;-45
2022/06/24 11:38:53;;;;;;;1.57;0.72;;;;;;;30.62;40.23;98933.97;1818998;77;28273;-46
2022/06/24 11:41:49;;;;;;;1.52;0.72;;;;;;;30.59;40.26;98927.66;1825177;77;28764;-43
2022/06/24 11:44:39;;;;;;;1.00;0.70;;;;;;;30.56;40.28;98923.26;1815153;77;28467;-42
2022/06/24 11:47:34;;;;;;;0.90;0.70;;;;;;;30.55;40.33;98923.02;1821492;78;28344;-43
2022/06/24 11:50:22;;;;;;;0.60;0.60;;;;;;;30.52;40.38;98911.13;1806949;77;28320;-42
2022/06/24 11:53:10;;;;;;;1.15;0.80;;;;;;;30.56;40.39;98904.69;1819200;77;28297;-42
2022/06/24 11:55:58;;;;;;;0.60;0.60;;;;;;;30.58;40.31;98887.73;1818423;78;28281;-41
2022/06/24 11:58:47;;;;;;;0.98;0.70;;;;;;;30.59;40.26;98874.16;1811103;78;28717;-42
2022/06/24 12:01:38;;;;;;;0.60;0.60;;;;;;;30.57;40.29;98886.11;1815896;77;28288;-43
2022/06/24 12:04:27;;;;;;;1.57;0.93;;;;;;;30.60;40.36;98897.95;1810341;77;28338;-41
2022/06/24 12:07:17;;;;;;;1.47;0.70;;;;;;;30.57;40.57;98884.72;1775540;78;28510;-43
2022/06/24 12:10:07;;;;;;;0.60;0.60;;;;;;;30.54;40.92;98879.22;1808549;77;28384;-44
2022/06/24 12:12:59;;;;;;;0.60;0.60;;;;;;;30.58;40.94;98872.48;1796425;77;28730;-43
2022/06/24 12:15:52;;;;;;;0.60;0.60;;;;;;;30.63;40.82;98871.03;1791812;78;28335;-42
2022/06/24 12:18:41;;;;;;;0.70;0.67;;;;;;;30.64;40.69;98872.69;1829360;76;28855;-44
2022/06/24 12:21:30;;;;;;;0.70;0.70;;;;;;;30.61;40.63;98869.95;1838423;76;28218;-42
2022/06/24 12:24:26;;;;;;;1.92;0.80;;;;;;;30.65;40.64;98877.09;1814784;77;28874;-46
2022/06/24 12:27:15;;;;;;;0.80;0.70;;;;;;;30.67;40.62;98876.22;1829249;77;28165;-43
2022/06/24 12:30:05;;;;;;;1.27;0.85;;;;;;;30.63;40.69;98868.25;1756175;80;28432;-46
2022/06/24 12:32:55;;;;;;;2.10;0.60;;;;;;;30.66;40.62;98874.03;1830537;76;28330;-44
2022/06/24 12:35:45;;;;;;;0.60;0.60;;;;;;;30.65;40.59;98870.16;1777490;79;28447;-44
2022/06/24 12:38:34;;;;;;;0.65;0.65;;;;;;;30.67;40.55;98875.66;1798966;78;28177;-43
2022/06/24 12:41:23;;;;;;;0.70;0.70;;;;;;;30.66;40.56;98862.11;1785968;78;28314;-44
2022/06/24 12:44:12;;;;;;;1.55;0.70;;;;;;;30.68;40.57;98857.91;1835225;77;28234;-47
2022/06/24 12:53:18;;;;;;;0.80;0.80;;;;;;;30.65;40.58;98851.58;1838213;77;28442;-46
2022/06/24 12:56:06;;;;;;;0.57;0.50;;;;;;;30.62;40.63;98852.17;1833838;77;28418;-44
2022/06/24 12:58:55;;;;;;;1.60;0.63;;;;;;;30.64;40.62;98858.23;1837858;77;28323;-44
2022/06/24 13:01:46;;;;;;;0.60;0.60;;;;;;;30.68;40.57;98852.92;1810865;78;28258;-44
2022/06/24 13:04:34;;;;;;;0.75;0.75;;;;;;;30.69;40.55;98842.91;1837869;77;31203;-43
2022/06/24 13:07:23;;;;;;;1.00;0.57;;;;;;;30.65;40.57;98834.11;1829738;77;28181;-43
2022/06/24 13:10:11;;;;;;;0.75;0.68;;;;;;;30.69;40.51;98824.88;1836217;77;28147;-43
2022/06/24 13:13:00;;;;;;;0.70;0.70;;;;;;;30.70;40.50;98821.55;1835478;77;28301;-45
2022/06/24 13:15:54;;;;;;;0.70;0.70;;;;;;;30.72;40.52;98826.22;1837167;77;28243;-43
2022/06/24 13:18:38;;;;;;;1.50;0.78;;;;;;;30.72;40.50;98823.45;1839578;77;28244;-45
2022/06/24 13:21:26;;;;;;;1.75;0.75;;;;;;;30.70;40.55;98818.78;1813502;78;28295;-45
2022/06/24 13:24:14;;;;;;;0.60;0.60;;;;;;;30.73;40.47;98820.95;1827173;77;28261;-43
2022/06/24 13:27:05;;;;;;;0.70;0.60;;;;;;;30.74;40.42;98809.55;1840653;77;28224;-45
2022/06/24 13:29:53;;;;;;;0.80;0.60;;;;;;;30.75;40.43;98812.59;1844407;77;28260;-42
2022/06/24 13:32:42;;;;;;;0.50;0.50;;;;;;;30.74;40.43;98808.72;1817493;76;28150;-46